Time;durP1;ratioP1;P1;durP2;ratioP2;P2;SDS_P1;SDS_P2;PMS_P1;PMS_P2;Temp;Humidity;BMP_temperature;BMP_pressure;BME280_temperature;BME280_humidity;BME280_pressure;Samples;Min_cycle;Max_cycle;Signal;HPM_P1;HPM_P2
2022/12/31 00:01:27;;;;;;;;;;;11.50;99.90;;;;;;5031259;28;20195;-70
2022/12/31 00:03:54;;;;;;;23.55;5.22;;;11.50;99.90;;;;;;5030679;28;20035;-70
2022/12/31 00:06:30;;;;;;;25.85;4.68;;;11.50;99.90;;;;;;5030129;28;20131;-70
2022/12/31 00:08:57;;;;;;;33.90;5.85;;;11.50;99.90;;;;;;5030674;28;20045;-69
2022/12/31 00:11:25;;;;;;;30.13;4.65;;;11.50;99.90;;;;;;5029345;28;20398;-70
2022/12/31 00:13:51;;;;;;;26.25;5.25;;;11.70;99.90;;;;;;5030579;28;20393;-68
2022/12/31 00:16:26;;;;;;;30.58;6.40;;;11.40;99.90;;;;;;5032641;28;20053;-68
2022/12/31 00:18:57;;;;;;;36.58;5.18;;;11.80;99.90;;;;;;5034340;28;20038;-70
2022/12/31 00:21:24;;;;;;;23.40;4.40;;;11.80;99.90;;;;;;5033599;28;20065;-70
2022/12/31 00:23:50;;;;;;;27.30;5.20;;;11.70;99.90;;;;;;5033780;28;20049;-69
2022/12/31 00:26:20;;;;;;;32.78;4.25;;;11.60;99.90;;;;;;5033938;28;20049;-69
2022/12/31 00:28:46;;;;;;;28.35;5.07;;;11.90;99.90;;;;;;5034597;28;20049;-69
2022/12/31 00:31:15;;;;;;;25.05;4.60;;;11.50;99.90;;;;;;5033100;28;20375;-68
2022/12/31 00:33:42;;;;;;;30.63;5.13;;;11.60;99.90;;;;;;5034139;28;20096;-69
2022/12/31 00:36:12;;;;;;;32.00;4.75;;;11.90;99.90;;;;;;5034097;28;20053;-68
2022/12/31 00:38:38;;;;;;;28.65;5.45;;;11.70;99.90;;;;;;5034477;28;20088;-70
2022/12/31 00:41:05;;;;;;;28.20;4.82;;;11.40;99.90;;;;;;5034220;28;20052;-68
2022/12/31 00:43:32;;;;;;;24.98;4.97;;;11.80;99.90;;;;;;5034357;28;20517;-68
2022/12/31 00:45:57;;;;;;;27.15;4.57;;;11.40;99.90;;;;;;5033850;28;20061;-68
2022/12/31 00:48:23;;;;;;;24.60;4.82;;;11.50;99.90;;;;;;5033609;28;20561;-68
2022/12/31 00:50:49;;;;;;;28.30;5.82;;;12.10;99.90;;;;;;5034122;28;20045;-69
2022/12/31 00:53:15;;;;;;;28.85;4.88;;;11.80;99.90;;;;;;5032860;28;20051;-69
2022/12/31 00:55:40;;;;;;;23.25;4.50;;;11.60;99.90;;;;;;5033820;28;20144;-70
2022/12/31 00:58:06;;;;;;;20.05;5.60;;;11.50;99.90;;;;;;5032950;28;20076;-71
2022/12/31 01:00:32;;;;;;;23.48;5.18;;;11.70;99.90;;;;;;5034103;28;20410;-69
2022/12/31 01:02:57;;;;;;;34.38;6.68;;;11.60;99.90;;;;;;5033630;28;20057;-69
2022/12/31 01:05:23;;;;;;;24.73;5.57;;;12.00;99.90;;;;;;5033908;28;20127;-67
2022/12/31 01:07:49;;;;;;;30.98;5.70;;;11.60;99.90;;;;;;5033870;28;20601;-70
2022/12/31 01:11:17;;;;;;;22.80;4.82;;;11.60;99.90;;;;;;5034157;28;20087;-69
2022/12/31 01:13:03;;;;;;;25.55;4.80;;;11.80;99.90;;;;;;5033229;28;20045;-70
2022/12/31 01:15:33;;;;;;;28.30;5.43;;;11.60;99.90;;;;;;5033505;28;20107;-70
2022/12/31 01:17:59;;;;;;;38.38;5.32;;;11.30;99.90;;;;;;5033573;28;20564;-70
2022/12/31 01:20:24;;;;;;;25.27;5.05;;;11.70;99.90;;;;;;5032778;28;20064;-68
2022/12/31 01:22:50;;;;;;;27.52;4.55;;;11.60;99.90;;;;;;5033834;28;20603;-70
2022/12/31 01:25:16;;;;;;;30.73;4.97;;;11.40;99.90;;;;;;5033494;28;20045;-69
2022/12/31 01:27:41;;;;;;;28.95;4.15;;;11.20;99.90;;;;;;5032550;28;20053;-69
2022/12/31 01:30:08;;;;;;;32.47;5.20;;;11.40;99.90;;;;;;5033669;28;20061;-69
2022/12/31 01:32:33;;;;;;;36.28;5.25;;;11.20;99.90;;;;;;5031668;28;20053;-70
2022/12/31 01:35:01;;;;;;;29.13;4.75;;;11.20;99.90;;;;;;5033734;28;20053;-69
2022/12/31 01:37:27;;;;;;;31.48;4.68;;;11.50;99.90;;;;;;5032376;28;20215;-69
2022/12/31 01:39:53;;;;;;;24.15;4.78;;;11.40;99.90;;;;;;5033025;28;20041;-69
2022/12/31 01:42:18;;;;;;;27.83;5.22;;;11.60;99.90;;;;;;5032968;28;20037;-69
2022/12/31 01:44:49;;;;;;;32.20;4.50;;;11.40;99.90;;;;;;5032814;28;20045;-70
2022/12/31 01:47:20;;;;;;;31.25;4.63;;;11.50;99.90;;;;;;5032880;28;20053;-68
2022/12/31 01:49:48;;;;;;;28.10;4.85;;;11.60;99.90;;;;;;5033134;28;20116;-69
2022/12/31 01:52:21;;;;;;;31.00;5.43;;;11.80;99.90;;;;;;5033053;28;20099;-69
2022/12/31 01:54:54;;;;;;;34.83;4.38;;;11.60;99.90;;;;;;5032454;28;20502;-68
2022/12/31 01:57:21;;;;;;;32.83;5.68;;;11.50;99.90;;;;;;5032914;28;20126;-68
2022/12/31 01:59:46;;;;;;;38.20;5.60;;;11.30;99.90;;;;;;5032539;28;20045;-68
2022/12/31 02:02:14;;;;;;;28.52;5.03;;;11.40;99.90;;;;;;5033015;28;20047;-68
2022/12/31 02:04:40;;;;;;;21.55;4.32;;;11.70;99.90;;;;;;5032713;28;20136;-68
2022/12/31 02:07:08;;;;;;;35.53;5.82;;;11.40;99.90;;;;;;5032998;28;20132;-69
2022/12/31 02:09:37;;;;;;;28.00;5.25;;;11.70;99.90;;;;;;5032864;28;20046;-69
2022/12/31 02:12:03;;;;;;;24.52;4.18;;;11.50;99.90;;;;;;5031896;28;20053;-69
2022/12/31 02:14:36;;;;;;;25.98;5.85;;;11.60;99.90;;;;;;5032386;28;20041;-69
2022/12/31 02:17:32;;;;;;;31.75;4.90;;;11.70;99.90;;;;;;5032724;28;20088;-68
2022/12/31 02:20:16;;;;;;;24.90;4.55;;;11.50;99.90;;;;;;5032679;28;20049;-68
2022/12/31 02:23:18;;;;;;;33.42;5.43;;;11.30;99.90;;;;;;5032447;28;20045;-70
2022/12/31 02:26:03;;;;;;;34.17;5.53;;;11.30;99.90;;;;;;5032064;28;20078;-69
2022/12/31 02:28:48;;;;;;;23.90;4.80;;;11.50;99.90;;;;;;5032379;28;20049;-69
2022/12/31 02:31:30;;;;;;;27.10;4.68;;;11.40;99.90;;;;;;5032171;28;20065;-69
2022/12/31 02:34:20;;;;;;;25.27;5.10;;;11.30;99.90;;;;;;5032232;28;20056;-70
2022/12/31 02:36:48;;;;;;;34.92;6.05;;;11.50;99.90;;;;;;5017981;28;20119;-69
2022/12/31 02:39:15;;;;;;;26.27;5.93;;;11.20;99.90;;;;;;5031165;28;20046;-70
2022/12/31 02:41:50;;;;;;;22.25;6.05;;;11.30;99.90;;;;;;5032314;28;20092;-69
2022/12/31 02:44:26;;;;;;;28.52;6.85;;;11.50;99.90;;;;;;5031893;28;20136;-69
2022/12/31 02:47:30;;;;;;;29.67;7.53;;;10.90;99.90;;;;;;5032202;28;20045;-69
2022/12/31 02:50:18;;;;;;;26.38;7.13;;;11.10;99.90;;;;;;5031734;28;20444;-69
2022/12/31 02:53:14;;;;;;;23.80;6.75;;;11.30;99.90;;;;;;5031870;28;20041;-70
2022/12/31 02:55:59;;;;;;;22.73;5.82;;;10.70;99.90;;;;;;5026477;28;20060;-71
2022/12/31 03:02:12;;;;;;;20.27;6.05;;;11.30;99.90;;;;;;5031623;28;20340;-69
2022/12/31 03:06:54;;;;;;;27.42;7.03;;;10.90;99.90;;;;;;5031576;28;20057;-69
2022/12/31 03:09:19;;;;;;;26.95;7.32;;;11.10;99.90;;;;;;5031596;28;20048;-70
2022/12/31 03:14:30;;;;;;;30.77;6.82;;;11.00;99.90;;;;;;5031137;28;20072;-69
2022/12/31 03:16:55;;;;;;;35.22;7.38;;;10.80;99.90;;;;;;5030454;28;20486;-70
2022/12/31 03:27:34;;;;;;;23.17;7.93;;;11.30;99.90;;;;;;5030948;28;20233;-69
2022/12/31 03:30:00;;;;;;;26.85;7.50;;;10.50;99.90;;;;;;5031226;28;20548;-69
2022/12/31 03:32:25;;;;;;;26.25;7.70;;;10.60;99.90;;;;;;5031046;28;20378;-70
2022/12/31 03:34:51;;;;;;;28.17;7.63;;;11.00;99.90;;;;;;5031317;28;20053;-69
2022/12/31 03:37:17;;;;;;;27.25;6.85;;;11.00;99.90;;;;;;5030868;28;20144;-70
2022/12/31 03:39:42;;;;;;;24.77;7.00;;;11.10;99.90;;;;;;5031389;28;20087;-69
2022/12/31 03:42:08;;;;;;;24.20;6.63;;;11.00;99.90;;;;;;5030498;28;20481;-68
2022/12/31 03:44:33;;;;;;;26.00;5.55;;;10.80;99.90;;;;;;5031102;28;20101;-69
2022/12/31 03:46:59;;;;;;;23.55;5.22;;;10.60;99.90;;;;;;5030860;28;20129;-69
2022/12/31 03:49:25;;;;;;;20.67;4.50;;;11.10;99.90;;;;;;5029945;28;20087;-69
2022/12/31 03:51:50;;;;;;;17.08;4.63;;;10.90;99.90;;;;;;5030617;28;20367;-70
2022/12/31 03:54:16;;;;;;;18.15;4.10;;;10.50;99.90;;;;;;5030611;28;20064;-69
2022/12/31 03:56:42;;;;;;;15.45;4.38;;;10.90;99.90;;;;;;5030295;28;20140;-69
2022/12/31 03:59:08;;;;;;;17.92;3.92;;;10.60;99.90;;;;;;5030741;28;20489;-69
2022/12/31 04:01:33;;;;;;;17.75;4.35;;;11.00;99.90;;;;;;5029532;28;20053;-69
2022/12/31 04:03:59;;;;;;;18.02;3.72;;;10.40;99.90;;;;;;5031097;28;20048;-69
2022/12/31 04:06:24;;;;;;;16.25;4.18;;;10.70;99.90;;;;;;5030876;28;20440;-69
2022/12/31 04:08:50;;;;;;;15.32;3.83;;;10.90;99.90;;;;;;5029616;28;20132;-68
2022/12/31 04:11:16;;;;;;;19.63;3.90;;;10.50;99.90;;;;;;5029888;28;20057;-69
2022/12/31 04:13:41;;;;;;;15.27;3.88;;;11.20;99.90;;;;;;5030691;28;20049;-69
2022/12/31 04:16:07;;;;;;;20.70;4.75;;;10.60;99.90;;;;;;5030958;28;20052;-69
2022/12/31 04:18:33;;;;;;;17.10;3.60;;;10.50;99.90;;;;;;5029246;28;20041;-68
2022/12/31 04:21:03;;;;;;;13.20;3.67;;;10.60;99.90;;;;;;5030633;28;20046;-69
2022/12/31 04:23:29;;;;;;;19.90;3.78;;;10.20;99.90;;;;;;5030683;28;20079;-69
2022/12/31 04:25:55;;;;;;;11.98;3.28;;;10.70;99.90;;;;;;5030347;28;20037;-69
2022/12/31 04:28:20;;;;;;;17.90;3.25;;;10.70;99.90;;;;;;5030466;28;20108;-69
2022/12/31 04:30:46;;;;;;;14.45;3.85;;;10.50;99.90;;;;;;5030539;28;20052;-71
2022/12/31 04:33:12;;;;;;;13.57;3.22;;;10.70;99.90;;;;;;5030780;28;20514;-70
2022/12/31 04:35:37;;;;;;;16.10;3.75;;;10.80;99.90;;;;;;5030799;28;20045;-69
2022/12/31 04:38:03;;;;;;;19.52;3.65;;;10.50;99.90;;;;;;5029988;28;20482;-69
2022/12/31 04:40:29;;;;;;;14.68;3.35;;;11.20;99.90;;;;;;5029744;28;20072;-69
2022/12/31 04:42:54;;;;;;;14.68;3.15;;;10.80;99.90;;;;;;5030420;28;20048;-70
2022/12/31 04:45:20;;;;;;;9.75;2.80;;;11.00;99.90;;;;;;5030580;28;20406;-70
2022/12/31 04:47:46;;;;;;;10.27;2.45;;;10.60;99.90;;;;;;5029019;28;20434;-68
2022/12/31 04:50:11;;;;;;;12.63;2.75;;;10.40;99.90;;;;;;5030428;28;20080;-70
2022/12/31 04:52:37;;;;;;;10.50;2.60;;;10.50;99.90;;;;;;5029536;28;20046;-68
2022/12/31 04:55:03;;;;;;;16.02;2.90;;;10.80;99.90;;;;;;5029677;28;20045;-70
2022/12/31 04:57:29;;;;;;;12.77;2.60;;;10.70;99.90;;;;;;5028731;28;20589;-69
2022/12/31 04:59:55;;;;;;;8.68;2.25;;;10.60;99.90;;;;;;5030407;28;20136;-68
2022/12/31 05:02:20;;;;;;;15.57;2.60;;;10.50;99.90;;;;;;5032196;28;20045;-70
2022/12/31 05:04:46;;;;;;;15.52;3.08;;;10.70;99.90;;;;;;5033974;28;20046;-70
2022/12/31 05:07:12;;;;;;;18.27;3.10;;;10.20;99.90;;;;;;5033363;28;20067;-69
2022/12/31 05:09:37;;;;;;;13.38;2.63;;;10.70;99.90;;;;;;5033396;28;20477;-70
2022/12/31 05:12:03;;;;;;;15.65;3.35;;;10.30;99.90;;;;;;5032428;28;20049;-70
2022/12/31 05:14:29;;;;;;;26.05;4.07;;;10.90;99.90;;;;;;5033564;28;20470;-70
2022/12/31 05:16:54;;;;;;;17.58;3.88;;;10.60;99.90;;;;;;5032316;28;20088;-69
2022/12/31 05:19:20;;;;;;;22.70;4.22;;;10.90;99.90;;;;;;5033568;28;20471;-70
2022/12/31 05:22:27;;;;;;;17.63;5.15;;;10.20;99.90;;;;;;5033598;28;20046;-70
2022/12/31 05:24:31;;;;;;;26.55;5.70;;;10.30;99.90;;;;;;5031696;28;20489;-69
2022/12/31 05:26:57;;;;;;;16.88;6.13;;;10.80;99.90;;;;;;5032514;28;20073;-70
2022/12/31 05:29:23;;;;;;;22.60;5.55;;;10.50;99.90;;;;;;5033485;28;20053;-70
2022/12/31 05:31:48;;;;;;;16.90;5.85;;;10.40;99.90;;;;;;5033437;28;20099;-70
2022/12/31 05:34:14;;;;;;;17.38;5.72;;;10.80;99.90;;;;;;5033458;28;20041;-70
2022/12/31 05:36:40;;;;;;;18.35;5.93;;;10.10;99.90;;;;;;5033441;28;20049;-69
2022/12/31 05:39:05;;;;;;;17.30;6.35;;;10.00;99.90;;;;;;5033037;28;20132;-70
2022/12/31 05:41:31;;;;;;;20.60;6.28;;;10.60;99.90;;;;;;5033410;28;20501;-70
2022/12/31 05:43:57;;;;;;;17.00;6.57;;;10.70;99.90;;;;;;5033216;28;20071;-69
2022/12/31 05:46:22;;;;;;;19.63;6.80;;;10.30;99.90;;;;;;5033693;28;20049;-70
2022/12/31 05:48:48;;;;;;;13.88;5.20;;;10.30;99.90;;;;;;5033113;28;20049;-70
2022/12/31 05:51:13;;;;;;;13.13;4.97;;;10.40;99.90;;;;;;5032744;28;20045;-69
2022/12/31 05:53:39;;;;;;;20.98;6.28;;;10.20;99.90;;;;;;5031524;28;20045;-69
2022/12/31 05:56:05;;;;;;;21.88;5.78;;;10.80;99.90;;;;;;5032722;28;20092;-69
2022/12/31 05:58:31;;;;;;;23.08;5.80;;;10.40;99.90;;;;;;5032774;28;20053;-69
2022/12/31 06:00:56;;;;;;;16.63;5.50;;;10.70;99.90;;;;;;5032894;28;20162;-70
2022/12/31 06:03:22;;;;;;;22.80;5.60;;;10.80;99.90;;;;;;5032448;28;20060;-70
2022/12/31 06:05:48;;;;;;;15.80;5.70;;;10.70;99.90;;;;;;5032572;28;20128;-70
2022/12/31 06:08:13;;;;;;;20.42;5.03;;;10.10;99.90;;;;;;5030981;28;20795;-70
2022/12/31 06:10:39;;;;;;;15.82;5.53;;;10.70;99.90;;;;;;5033207;28;20049;-71
2022/12/31 06:13:05;;;;;;;11.10;4.72;;;10.30;99.90;;;;;;5032561;28;20053;-75
2022/12/31 06:15:31;;;;;;;13.77;4.28;;;10.10;99.90;;;;;;5031613;28;20042;-71
2022/12/31 06:17:57;;;;;;;13.13;3.40;;;10.60;99.90;;;;;;5031881;28;20045;-72
2022/12/31 06:20:22;;;;;;;12.60;3.00;;;10.70;99.90;;;;;;5032096;28;20449;-72
2022/12/31 06:22:48;;;;;;;5.60;1.98;;;10.30;99.90;;;;;;5032316;28;20053;-71
2022/12/31 06:25:14;;;;;;;8.90;2.30;;;10.10;99.90;;;;;;5031299;28;20385;-73
2022/12/31 06:27:39;;;;;;;6.53;1.80;;;10.10;99.90;;;;;;5031530;28;20045;-72
2022/12/31 06:30:06;;;;;;;8.68;1.73;;;9.90;99.90;;;;;;5031845;28;20091;-72
2022/12/31 06:32:31;;;;;;;7.07;1.70;;;9.80;99.90;;;;;;5032385;28;20107;-72
2022/12/31 06:34:57;;;;;;;7.32;1.95;;;10.50;99.90;;;;;;5032013;28;20049;-72
2022/12/31 06:37:23;;;;;;;8.40;1.80;;;10.10;99.90;;;;;;5031389;28;20524;-72
2022/12/31 06:39:48;;;;;;;13.07;2.80;;;10.00;99.90;;;;;;5032510;28;20112;-72
2022/12/31 06:42:14;;;;;;;13.23;2.30;;;10.00;99.90;;;;;;5030756;28;20045;-72
2022/12/31 06:44:40;;;;;;;7.50;2.50;;;10.40;99.90;;;;;;5031964;28;20038;-72
2022/12/31 06:47:05;;;;;;;11.77;2.90;;;9.90;99.90;;;;;;5030032;28;20428;-72
2022/12/31 06:49:31;;;;;;;13.27;2.67;;;9.70;99.90;;;;;;5031882;28;20082;-72
2022/12/31 06:51:57;;;;;;;10.32;3.58;;;10.20;99.90;;;;;;5031829;28;20506;-72
2022/12/31 06:54:22;;;;;;;14.25;4.20;;;9.80;99.90;;;;;;5030611;28;20041;-71
2022/12/31 06:56:48;;;;;;;13.93;4.53;;;10.00;99.90;;;;;;5031061;28;20148;-72
2022/12/31 06:59:23;;;;;;;16.70;5.90;;;9.80;99.90;;;;;;5031801;28;20448;-71
2022/12/31 07:02:15;;;;;;;17.52;6.80;;;10.20;99.90;;;;;;5031830;28;20091;-72
2022/12/31 07:05:16;;;;;;;17.88;6.50;;;10.10;99.90;;;;;;5025583;28;20386;-70
2022/12/31 07:07:54;;;;;;;19.35;6.75;;;10.20;99.90;;;;;;4990519;28;20064;-70
2022/12/31 07:10:32;;;;;;;14.00;6.80;;;10.30;99.90;;;;;;5031609;28;20064;-69
2022/12/31 07:13:37;;;;;;;13.45;7.10;;;10.10;99.90;;;;;;5031276;28;20445;-69
2022/12/31 07:16:09;;;;;;;13.27;7.55;;;10.00;99.90;;;;;;5029954;28;20057;-69
2022/12/31 07:18:34;;;;;;;14.73;7.88;;;10.50;99.90;;;;;;5031263;28;20041;-69
2022/12/31 07:21:00;;;;;;;14.20;7.53;;;10.40;99.90;;;;;;5030705;28;20551;-69
2022/12/31 07:23:26;;;;;;;14.50;7.78;;;10.10;99.90;;;;;;5031567;28;20055;-69
2022/12/31 07:26:03;;;;;;;11.73;6.72;;;10.30;99.90;;;;;;5031035;28;20045;-69
2022/12/31 07:28:38;;;;;;;12.32;6.32;;;10.30;99.90;;;;;;5026240;28;20059;-69
2022/12/31 07:31:26;;;;;;;16.50;6.03;;;10.40;99.90;;;;;;5025711;28;20498;-69
2022/12/31 07:33:58;;;;;;;12.00;6.70;;;10.30;99.90;;;;;;5030214;28;20046;-69
2022/12/31 07:36:49;;;;;;;16.30;6.85;;;10.10;99.90;;;;;;5030159;28;20501;-69
2022/12/31 07:39:40;;;;;;;12.18;6.47;;;10.60;99.90;;;;;;5029853;28;20120;-69
2022/12/31 07:42:30;;;;;;;16.20;7.63;;;10.10;99.90;;;;;;4979073;28;20144;-70
2022/12/31 07:45:15;;;;;;;11.52;6.80;;;9.90;99.90;;;;;;5030568;28;20049;-70
2022/12/31 07:47:41;;;;;;;13.85;6.93;;;10.00;99.90;;;;;;5030127;28;20052;-69
2022/12/31 07:50:14;;;;;;;15.10;7.75;;;10.40;99.90;;;;;;5028777;28;20045;-70
2022/12/31 07:52:40;;;;;;;12.07;8.32;;;10.70;99.90;;;;;;5030127;28;20552;-70
2022/12/31 07:55:06;;;;;;;16.35;8.85;;;10.00;99.90;;;;;;5030537;28;20128;-71
2022/12/31 07:57:45;;;;;;;17.20;9.13;;;10.10;99.90;;;;;;5029834;28;20049;-69
2022/12/31 08:00:13;;;;;;;20.88;9.68;;;10.30;99.90;;;;;;5030451;28;20049;-70
2022/12/31 08:02:45;;;;;;;17.80;9.90;;;10.30;99.90;;;;;;5030383;28;20083;-70
2022/12/31 08:05:14;;;;;;;18.40;10.60;;;10.30;99.90;;;;;;5029983;28;20445;-70
2022/12/31 08:08:09;;;;;;;23.60;9.70;;;10.50;99.90;;;;;;5030427;28;20537;-69
2022/12/31 08:10:58;;;;;;;20.83;9.82;;;10.40;99.90;;;;;;5019536;28;20441;-69
2022/12/31 08:13:24;;;;;;;18.52;8.95;;;10.80;99.90;;;;;;5029644;28;20046;-69
2022/12/31 08:15:50;;;;;;;16.27;8.25;;;10.30;99.90;;;;;;5029791;28;20137;-68
2022/12/31 08:18:16;;;;;;;18.00;8.32;;;10.80;99.90;;;;;;5029855;28;20049;-69
2022/12/31 08:21:09;;;;;;;11.38;7.07;;;10.80;99.90;;;;;;5028403;28;20048;-69
2022/12/31 08:23:51;;;;;;;12.27;6.80;;;10.90;99.90;;;;;;5030134;28;20053;-68
2022/12/31 08:26:36;;;;;;;9.32;6.03;;;10.30;99.90;;;;;;5029946;28;20139;-69
2022/12/31 08:29:20;;;;;;;10.02;6.30;;;10.90;99.90;;;;;;5030744;28;20046;-73
2022/12/31 08:32:18;;;;;;;10.27;6.03;;;10.40;99.90;;;;;;5030727;28;20128;-69
2022/12/31 08:35:11;;;;;;;9.60;6.38;;;10.30;99.90;;;;;;5011692;28;20050;-69
2022/12/31 08:37:43;;;;;;;10.70;6.68;;;10.70;99.90;;;;;;5032335;28;20049;-71
2022/12/31 08:40:29;;;;;;;11.27;6.35;;;10.40;99.90;;;;;;5034104;28;20120;-71
2022/12/31 08:43:18;;;;;;;10.85;6.65;;;10.30;99.90;;;;;;5001874;28;20057;-71
2022/12/31 08:45:52;;;;;;;9.07;6.60;;;10.90;99.90;;;;;;5030580;28;20413;-71
2022/12/31 08:48:25;;;;;;;10.93;6.30;;;10.50;99.90;;;;;;5033751;28;20132;-71
2022/12/31 08:50:51;;;;;;;9.25;6.85;;;10.30;99.90;;;;;;5033256;28;20128;-71
2022/12/31 08:53:17;;;;;;;;;;;10.30;99.90;;;;;;5034191;28;20037;-71
2022/12/31 08:55:44;;;;;;;12.82;7.47;;;10.70;99.90;;;;;;5033207;28;20467;-71
2022/12/31 08:58:35;;;;;;;10.45;7.40;;;11.00;99.90;;;;;;5032483;28;20413;-71
2022/12/31 09:01:02;;;;;;;10.43;7.80;;;10.40;99.90;;;;;;5033246;28;20088;-70
2022/12/31 09:04:23;;;;;;;11.23;8.50;;;11.10;99.90;;;;;;5032876;28;20076;-70
2022/12/31 09:06:56;;;;;;;13.27;9.35;;;10.30;99.90;;;;;;5008447;28;20576;-71
2022/12/31 09:09:41;;;;;;;12.38;9.80;;;11.40;99.90;;;;;;5033053;28;20444;-71
2022/12/31 09:12:06;;;;;;;12.25;9.82;;;11.50;99.90;;;;;;5033553;28;20056;-69
2022/12/31 09:15:02;;;;;;;12.20;9.70;;;11.80;99.90;;;;;;5033645;28;20049;-68
2022/12/31 09:17:52;;;;;;;11.20;8.07;;;11.20;99.90;;;;;;5033118;28;20087;-67
2022/12/31 09:20:33;;;;;;;11.15;8.75;;;11.40;99.90;;;;;;5033735;28;20052;-71
2022/12/31 09:23:00;;;;;;;12.23;7.25;;;11.50;99.90;;;;;;5034318;28;20398;-69
2022/12/31 09:25:27;;;;;;;11.32;6.97;;;11.60;99.90;;;;;;5034010;28;20071;-71
2022/12/31 09:28:12;;;;;;;11.20;6.85;;;12.40;99.90;;;;;;5033569;28;20045;-67
2022/12/31 09:30:53;;;;;;;11.18;6.47;;;12.20;99.90;;;;;;5032303;28;20092;-69
2022/12/31 09:33:51;;;;;;;11.20;5.55;;;12.60;99.90;;;;;;5033397;28;20085;-68
2022/12/31 09:36:33;;;;;;;10.90;4.60;;;12.30;99.90;;;;;;5034214;28;20052;-68
2022/12/31 09:39:18;;;;;;;11.75;4.90;;;12.20;99.90;;;;;;5033866;28;20120;-68
2022/12/31 09:42:04;;;;;;;10.35;4.95;;;12.30;99.90;;;;;;5034248;28;20041;-68
2022/12/31 09:44:51;;;;;;;11.48;3.88;;;12.40;99.90;;;;;;5033875;28;20041;-68
2022/12/31 09:47:35;;;;;;;11.13;4.53;;;11.90;99.90;;;;;;5033794;28;20544;-68
2022/12/31 09:50:38;;;;;;;8.43;3.80;;;12.40;99.90;;;;;;5033958;28;20096;-69
2022/12/31 09:53:29;;;;;;;7.95;3.50;;;12.10;99.90;;;;;;5024427;28;20057;-69
2022/12/31 09:56:21;;;;;;;11.48;3.67;;;12.20;99.90;;;;;;5033488;28;20050;-67
2022/12/31 09:59:09;;;;;;;8.75;2.75;;;12.80;99.90;;;;;;5033530;28;20062;-70
2022/12/31 10:01:59;;;;;;;10.07;2.67;;;11.90;99.90;;;;;;5033804;28;20049;-67
2022/12/31 10:04:33;;;;;;;9.20;2.67;;;12.50;99.90;;;;;;5033736;28;20049;-68
2022/12/31 10:07:08;;;;;;;9.95;2.63;;;12.10;99.90;;;;;;5033941;28;20091;-68
2022/12/31 10:10:04;;;;;;;8.45;2.08;;;12.70;99.90;;;;;;5033578;28;20057;-68
2022/12/31 10:13:22;;;;;;;7.43;2.35;;;12.70;99.90;;;;;;5033325;28;20041;-68
2022/12/31 10:16:00;;;;;;;9.98;2.00;;;12.50;99.90;;;;;;5019739;28;20057;-69
2022/12/31 10:18:43;;;;;;;7.40;2.08;;;12.30;99.90;;;;;;5033596;28;20060;-70
2022/12/31 10:21:43;;;;;;;8.48;1.85;;;12.70;99.90;;;;;;5033467;28;20061;-68
2022/12/31 10:24:38;;;;;;;8.70;1.90;;;12.80;99.90;;;;;;5033251;28;20049;-69
2022/12/31 10:27:25;;;;;;;11.52;2.50;;;12.90;99.90;;;;;;5032699;28;20470;-68
2022/12/31 10:30:16;;;;;;;13.57;2.90;;;12.80;99.90;;;;;;5033266;28;20053;-68
2022/12/31 10:32:47;;;;;;;16.50;2.65;;;14.00;99.90;;;;;;5020349;28;20433;-69
2022/12/31 10:35:27;;;;;;;13.30;2.55;;;13.10;99.90;;;;;;5033263;28;20099;-69
2022/12/31 10:38:03;;;;;;;15.20;2.67;;;12.60;99.90;;;;;;5033130;28;20045;-68
2022/12/31 10:41:24;;;;;;;15.05;2.80;;;12.80;99.90;;;;;;5032830;28;20504;-69
2022/12/31 10:44:23;;;;;;;13.48;2.50;;;13.20;99.90;;;;;;4973057;28;20136;-69
2022/12/31 10:47:16;;;;;;;14.50;2.85;;;12.60;99.90;;;;;;5031944;28;20373;-69
2022/12/31 10:50:00;;;;;;;12.10;2.38;;;13.20;99.90;;;;;;5032967;28;20091;-69
2022/12/31 10:52:28;;;;;;;16.30;3.63;;;12.70;99.90;;;;;;5032923;28;20045;-68
2022/12/31 10:54:57;;;;;;;19.77;3.42;;;13.20;99.90;;;;;;5032685;28;20049;-70
2022/12/31 10:57:57;;;;;;;17.23;2.60;;;13.30;99.90;;;;;;5032359;28;20053;-69
2022/12/31 11:00:29;;;;;;;14.80;3.25;;;13.60;99.90;;;;;;5031900;28;20096;-69
2022/12/31 11:03:27;;;;;;;14.45;2.95;;;13.50;99.90;;;;;;5032434;28;20485;-68
2022/12/31 11:06:10;;;;;;;;;;;13.50;99.90;;;;;;5033149;28;20092;-66
2022/12/31 11:08:54;;;;;;;16.50;3.08;;;13.60;99.90;;;;;;5032444;28;19924;-66
2022/12/31 11:11:54;;;;;;;18.55;2.95;;;13.50;99.90;;;;;;5032090;28;20092;-66
2022/12/31 11:14:57;;;;;;;14.27;2.88;;;13.80;99.90;;;;;;5032227;28;20051;-66
2022/12/31 11:17:44;;;;;;;16.10;3.25;;;13.80;99.90;;;;;;5026442;28;20049;-66
2022/12/31 11:20:28;;;;;;;19.95;3.53;;;13.80;99.90;;;;;;5031600;28;20045;-64
2022/12/31 11:23:30;;;;;;;26.10;4.55;;;13.90;99.90;;;;;;5032086;28;20136;-65
2022/12/31 11:26:29;;;;;;;17.27;3.60;;;13.60;99.90;;;;;;5028774;28;20136;-63
2022/12/31 11:29:11;;;;;;;17.58;2.90;;;13.90;99.90;;;;;;5028514;28;20048;-65
2022/12/31 11:32:00;;;;;;;22.70;3.72;;;13.40;99.90;;;;;;5031406;28;20061;-65
2022/12/31 11:35:03;;;;;;;14.30;3.35;;;13.40;99.90;;;;;;5031615;28;20115;-66
2022/12/31 11:37:51;;;;;;;22.20;4.63;;;13.40;99.90;;;;;;5031423;28;20049;-66
2022/12/31 11:40:25;;;;;;;;;;;13.20;99.90;;;;;;5031902;28;20052;-68
2022/12/31 11:43:01;;;;;;;23.83;3.58;;;13.30;99.90;;;;;;5031908;28;20348;-65
2022/12/31 11:45:45;;;;;;;18.88;3.67;;;13.20;99.90;;;;;;5031656;28;20041;-65
2022/12/31 11:48:26;;;;;;;16.80;3.20;;;13.30;99.90;;;;;;5031793;28;20137;-65
2022/12/31 11:51:01;;;;;;;29.83;3.60;;;13.60;99.90;;;;;;5012128;28;20042;-65
2022/12/31 11:53:56;;;;;;;19.83;3.58;;;13.70;99.90;;;;;;5012108;28;20083;-67
2022/12/31 11:56:32;;;;;;;19.70;3.53;;;13.30;99.90;;;;;;5011635;28;20494;-66
2022/12/31 11:58:59;;;;;;;20.25;3.35;;;13.40;99.90;;;;;;5011968;28;20061;-66
2022/12/31 12:01:35;;;;;;;24.27;3.38;;;13.50;99.90;;;;;;5011791;28;20050;-65
2022/12/31 12:04:01;;;;;;;23.27;4.05;;;13.40;99.90;;;;;;5011744;28;20057;-65
2022/12/31 12:06:29;;;;;;;16.73;3.65;;;13.30;99.90;;;;;;5011616;28;20046;-66
2022/12/31 12:09:00;;;;;;;12.60;3.33;;;13.70;99.90;;;;;;5011058;28;20045;-67
2022/12/31 12:11:30;;;;;;;19.55;3.47;;;13.60;99.90;;;;;;5019922;28;20072;-68
2022/12/31 12:13:56;;;;;;;18.55;3.63;;;13.70;99.90;;;;;;5035167;28;20135;-66
2022/12/31 12:16:24;;;;;;;19.95;3.80;;;13.90;99.90;;;;;;5035225;28;20116;-68
2022/12/31 12:19:04;;;;;;;16.83;2.92;;;13.90;99.90;;;;;;5035406;28;20131;-65
2022/12/31 12:21:30;;;;;;;13.50;2.95;;;13.50;99.90;;;;;;5035316;28;20056;-65
2022/12/31 12:24:05;;;;;;;17.45;2.97;;;14.10;99.90;;;;;;5035059;28;20041;-66
2022/12/31 12:26:43;;;;;;;17.48;3.08;;;13.70;99.90;;;;;;5035286;28;20056;-66
2022/12/31 12:29:22;;;;;;;13.48;2.92;;;13.70;99.90;;;;;;5033590;28;20052;-67
2022/12/31 12:31:58;;;;;;;10.63;2.80;;;13.50;99.90;;;;;;5033644;28;20045;-66
2022/12/31 12:34:36;;;;;;;9.70;2.90;;;13.60;99.90;;;;;;5034557;28;20796;-65
2022/12/31 12:37:03;;;;;;;14.18;2.97;;;13.40;99.90;;;;;;5035190;28;20045;-66
2022/12/31 12:39:32;;;;;;;15.35;3.58;;;13.40;99.90;;;;;;5034879;28;20086;-66
2022/12/31 12:42:09;;;;;;;14.35;3.17;;;13.80;99.90;;;;;;5033920;28;20052;-66
2022/12/31 12:44:35;;;;;;;15.73;3.75;;;13.60;99.90;;;;;;5035090;28;20054;-66
2022/12/31 12:47:04;;;;;;;;;;;14.00;99.90;;;;;;5035474;28;20049;-66
2022/12/31 12:49:43;;;;;;;13.27;2.70;;;13.40;99.90;;;;;;5034921;28;19973;-67
2022/12/31 12:52:31;;;;;;;12.38;3.53;;;13.50;99.90;;;;;;5034662;28;20095;-67
2022/12/31 12:55:05;;;;;;;21.30;3.55;;;13.80;99.90;;;;;;5034710;28;20374;-65
2022/12/31 12:57:41;;;;;;;15.13;3.83;;;13.70;99.90;;;;;;5034787;28;20426;-66
2022/12/31 13:00:17;;;;;;;21.00;4.10;;;13.70;99.90;;;;;;5034778;28;20080;-66
2022/12/31 13:03:10;;;;;;;23.83;4.15;;;13.70;99.90;;;;;;5034828;28;20076;-66
2022/12/31 13:05:49;;;;;;;17.30;3.80;;;13.60;99.90;;;;;;5034649;28;20132;-65
2022/12/31 13:08:36;;;;;;;23.30;4.90;;;13.60;99.90;;;;;;5034302;28;20413;-65
2022/12/31 13:11:02;;;;;;;16.67;3.60;;;13.30;99.90;;;;;;5034560;28;20051;-66
2022/12/31 13:13:45;;;;;;;19.73;3.90;;;13.80;99.90;;;;;;5033813;28;20441;-67
2022/12/31 13:16:22;;;;;;;21.60;4.03;;;13.50;99.90;;;;;;5034349;28;20088;-65
2022/12/31 13:19:17;;;;;;;15.68;3.80;;;13.70;99.90;;;;;;5034124;28;20429;-67
2022/12/31 13:22:11;;;;;;;25.25;4.32;;;13.40;99.90;;;;;;4979486;28;20132;-66
2022/12/31 13:25:14;;;;;;;26.27;4.45;;;13.40;99.90;;;;;;5034231;28;20049;-68
2022/12/31 13:27:44;;;;;;;19.73;4.32;;;13.30;99.90;;;;;;5034190;28;20429;-66
2022/12/31 13:30:25;;;;;;;24.23;4.32;;;13.10;99.90;;;;;;5034051;28;20045;-68
2022/12/31 13:33:15;;;;;;;25.38;3.83;;;13.20;99.90;;;;;;5034138;28;20042;-66